createdAt,value
2023-07-17T00:01:17.483Z,99.90
2023-07-17T00:03:51.608Z,99.90
2023-07-17T00:06:23.726Z,99.90
2023-07-17T00:08:55.807Z,99.90
2023-07-17T00:11:27.872Z,99.90
2023-07-17T00:14:00.320Z,99.90
2023-07-17T00:16:32.962Z,99.90
2023-07-17T00:19:05.615Z,99.90
2023-07-17T00:21:38.121Z,99.90
2023-07-17T00:24:10.223Z,99.90
2023-07-17T00:26:42.420Z,99.90
2023-07-17T00:29:24.701Z,99.90
2023-07-17T00:31:58.948Z,99.90
2023-07-17T00:34:31.044Z,99.90
2023-07-17T00:37:03.369Z,99.90
2023-07-17T00:39:36.423Z,99.90
2023-07-17T00:42:09.323Z,99.90
2023-07-17T00:44:41.579Z,99.90
2023-07-17T00:47:14.041Z,99.90
2023-07-17T00:49:49.123Z,99.90
2023-07-17T00:52:21.252Z,99.90
2023-07-17T00:54:54.049Z,99.90
2023-07-17T00:57:27.621Z,99.90
2023-07-17T01:00:00.381Z,99.90
2023-07-17T01:02:34.856Z,99.90
2023-07-17T01:05:10.006Z,99.90
2023-07-17T01:07:42.058Z,99.90
2023-07-17T01:10:14.212Z,99.90
2023-07-17T01:12:46.331Z,99.90
2023-07-17T01:15:18.353Z,99.90
2023-07-17T01:17:50.631Z,99.90
2023-07-17T01:20:22.799Z,99.90
2023-07-17T01:23:00.632Z,99.90
2023-07-17T01:25:33.898Z,99.90
2023-07-17T01:28:06.019Z,99.90
2023-07-17T01:30:38.177Z,99.90
2023-07-17T01:33:10.579Z,99.90
2023-07-17T01:35:43.136Z,99.90
2023-07-17T01:38:16.248Z,99.90
2023-07-17T01:40:48.352Z,99.90
2023-07-17T01:43:20.345Z,99.90
2023-07-17T01:45:53.143Z,99.90
2023-07-17T01:48:25.231Z,99.90
2023-07-17T01:50:57.306Z,99.90
2023-07-17T01:53:29.396Z,99.90
2023-07-17T01:56:01.749Z,99.90
2023-07-17T01:58:34.218Z,99.90
2023-07-17T02:01:06.302Z,99.90
2023-07-17T02:03:39.564Z,99.90
2023-07-17T02:06:11.733Z,99.90
2023-07-17T02:08:43.797Z,99.90
2023-07-17T02:11:16.088Z,99.90
2023-07-17T02:13:48.325Z,99.90
2023-07-17T02:16:20.645Z,99.90
2023-07-17T02:18:52.829Z,99.90
2023-07-17T02:21:24.837Z,99.90
2023-07-17T02:23:58.689Z,99.90
2023-07-17T02:26:31.772Z,99.90
2023-07-17T02:29:04.220Z,99.90
2023-07-17T02:31:36.239Z,99.90
2023-07-17T02:34:08.492Z,99.90
2023-07-17T02:36:40.620Z,99.90
2023-07-17T02:39:13.863Z,99.90
2023-07-17T02:41:46.984Z,99.90
2023-07-17T02:44:19.414Z,99.90
2023-07-17T02:46:52.454Z,99.90
2023-07-17T02:49:24.560Z,99.90
2023-07-17T02:51:56.752Z,99.90
2023-07-17T02:54:28.789Z,99.90
2023-07-17T02:57:00.999Z,99.90
2023-07-17T02:59:33.496Z,99.90
2023-07-17T03:02:06.724Z,99.90
2023-07-17T03:04:38.696Z,99.90
2023-07-17T03:07:10.745Z,99.90
2023-07-17T03:09:42.792Z,99.90
2023-07-17T03:12:14.931Z,99.90
2023-07-17T03:14:46.952Z,99.90
2023-07-17T03:17:18.977Z,99.90
2023-07-17T03:19:52.442Z,99.90
2023-07-17T03:22:24.483Z,99.90
2023-07-17T03:24:57.302Z,99.90
2023-07-17T03:27:29.340Z,99.90
2023-07-17T03:30:01.356Z,99.90
2023-07-17T03:32:37.251Z,99.90
2023-07-17T03:35:10.840Z,99.90
2023-07-17T03:37:43.818Z,99.90
2023-07-17T03:40:15.855Z,99.90
2023-07-17T03:42:47.908Z,99.90
2023-07-17T03:45:19.999Z,99.90
2023-07-17T03:47:52.467Z,99.90
2023-07-17T03:50:24.454Z,99.90
2023-07-17T03:52:56.502Z,99.90
2023-07-17T03:55:28.521Z,99.90
2023-07-17T03:58:00.629Z,99.90
2023-07-17T04:00:32.725Z,99.90
2023-07-17T04:03:05.052Z,99.90
2023-07-17T04:05:37.234Z,99.90
2023-07-17T04:08:09.231Z,99.90
2023-07-17T04:10:41.370Z,99.90
2023-07-17T04:13:14.635Z,99.90
2023-07-17T04:15:46.819Z,99.90
2023-07-17T04:18:20.478Z,99.90
2023-07-17T04:20:52.463Z,99.90
2023-07-17T04:23:24.671Z,99.90
2023-07-17T04:25:56.823Z,99.90
2023-07-17T04:28:28.980Z,99.90
2023-07-17T04:31:04.636Z,99.90
2023-07-17T04:33:36.701Z,99.90
2023-07-17T04:36:09.186Z,99.90
2023-07-17T04:38:41.385Z,99.90
2023-07-17T04:41:13.577Z,99.90
2023-07-17T04:43:45.606Z,99.90
2023-07-17T04:46:17.791Z,99.90
2023-07-17T04:48:50.150Z,99.90
2023-07-17T04:51:22.536Z,99.90
2023-07-17T04:53:54.953Z,99.90
2023-07-17T04:56:27.076Z,99.90
2023-07-17T04:58:59.167Z,99.90
2023-07-17T05:01:31.329Z,99.90
2023-07-17T05:04:03.812Z,99.90
2023-07-17T05:06:36.008Z,99.90
2023-07-17T05:09:08.195Z,99.90
2023-07-17T05:11:43.110Z,99.90
2023-07-17T05:14:16.226Z,99.90
2023-07-17T05:16:48.441Z,99.90
2023-07-17T05:19:20.878Z,99.90
2023-07-17T05:21:53.046Z,99.90
2023-07-17T05:24:25.493Z,99.90
2023-07-17T05:26:57.614Z,99.90
2023-07-17T05:29:29.849Z,99.90
2023-07-17T05:32:02.075Z,99.90
2023-07-17T05:34:35.929Z,99.90
2023-07-17T05:37:08.100Z,99.90
2023-07-17T05:39:40.317Z,99.90
2023-07-17T05:42:12.501Z,99.90
2023-07-17T05:44:44.740Z,99.90
2023-07-17T05:47:16.833Z,99.90
2023-07-17T05:49:49.039Z,99.90
2023-07-17T05:52:21.131Z,99.90
2023-07-17T05:54:53.257Z,99.90
2023-07-17T05:57:25.534Z,99.90
2023-07-17T05:59:57.642Z,99.90
2023-07-17T06:02:29.724Z,99.90
2023-07-17T06:05:02.079Z,99.90
2023-07-17T06:07:35.178Z,99.90
2023-07-17T06:10:08.795Z,99.90
2023-07-17T06:12:41.769Z,99.90
2023-07-17T06:15:15.217Z,99.90
2023-07-17T06:17:48.290Z,99.90
2023-07-17T06:20:21.690Z,99.90
2023-07-17T06:22:54.007Z,99.90
2023-07-17T06:25:26.164Z,99.90
2023-07-17T06:27:58.315Z,99.90
2023-07-17T06:30:34.649Z,99.90
2023-07-17T06:33:07.449Z,99.90
2023-07-17T06:35:39.560Z,99.90
2023-07-17T06:38:11.638Z,98.50
2023-07-17T06:40:43.696Z,97.70
2023-07-17T06:43:15.848Z,97.30
2023-07-17T06:45:49.773Z,97.10
2023-07-17T06:48:25.653Z,95.00
2023-07-17T06:51:00.025Z,94.10
2023-07-17T06:53:32.721Z,94.40
2023-07-17T06:56:04.982Z,92.30
2023-07-17T06:58:37.340Z,91.80
2023-07-17T07:01:10.258Z,91.00
2023-07-17T07:03:47.010Z,90.60
2023-07-17T07:06:19.446Z,90.40
2023-07-17T07:08:56.109Z,88.00
2023-07-17T07:11:29.608Z,86.10
2023-07-17T07:14:03.047Z,87.60
2023-07-17T07:16:36.164Z,85.40
2023-07-17T07:19:11.141Z,81.10
2023-07-17T07:21:43.562Z,77.00
2023-07-17T07:24:15.830Z,77.00
2023-07-17T07:26:47.927Z,75.30
2023-07-17T07:29:20.095Z,70.90
2023-07-17T07:31:52.658Z,71.40
2023-07-17T07:34:25.029Z,71.20
2023-07-17T07:36:57.139Z,69.10
2023-07-17T07:39:29.164Z,69.90
2023-07-17T07:42:01.250Z,71.80
2023-07-17T07:44:33.340Z,67.90
2023-07-17T07:47:06.424Z,65.30
2023-07-17T07:49:38.665Z,64.60
2023-07-17T07:52:10.806Z,62.70
2023-07-17T07:54:44.915Z,66.40
2023-07-17T07:57:17.113Z,62.30
2023-07-17T07:59:50.680Z,62.30
2023-07-17T08:02:25.423Z,58.70
2023-07-17T08:04:58.070Z,58.20
2023-07-17T08:07:30.274Z,59.10
2023-07-17T08:10:03.850Z,59.80
2023-07-17T08:12:36.307Z,56.00
2023-07-17T08:15:09.167Z,57.70
2023-07-17T08:17:42.122Z,59.10
2023-07-17T08:20:14.310Z,58.90
2023-07-17T08:22:47.984Z,58.40
2023-07-17T08:25:24.218Z,60.50
2023-07-17T08:27:56.301Z,57.90
2023-07-17T08:30:28.630Z,55.60
2023-07-17T08:33:00.796Z,57.90
2023-07-17T08:35:32.916Z,57.30
2023-07-17T08:38:05.310Z,58.30
2023-07-17T08:40:40.753Z,58.00
2023-07-17T08:43:13.160Z,58.30
2023-07-17T08:45:47.101Z,59.70
2023-07-17T08:48:20.500Z,60.50
2023-07-17T08:50:53.224Z,63.30
2023-07-17T08:53:25.983Z,61.10
2023-07-17T08:55:58.723Z,60.20
2023-07-17T08:58:31.806Z,61.30
2023-07-17T09:01:04.187Z,65.30
2023-07-17T09:03:37.957Z,63.40
2023-07-17T09:06:14.662Z,64.10
2023-07-17T09:08:46.830Z,60.30
2023-07-17T09:11:20.032Z,61.90
2023-07-17T09:13:52.621Z,62.80
2023-07-17T09:16:26.021Z,64.30
2023-07-17T09:18:58.241Z,66.30
2023-07-17T09:21:32.250Z,69.40
2023-07-17T09:24:04.624Z,69.80
2023-07-17T09:26:36.973Z,69.00
2023-07-17T09:29:09.108Z,66.70
2023-07-17T09:31:41.377Z,66.80
2023-07-17T09:34:14.603Z,67.00
2023-07-17T09:36:52.228Z,65.40
2023-07-17T09:39:26.565Z,66.20
2023-07-17T09:41:59.420Z,70.50
2023-07-17T09:44:33.130Z,69.80
2023-07-17T09:47:06.127Z,70.30
2023-07-17T09:49:40.089Z,68.90
2023-07-17T09:52:13.909Z,67.60
2023-07-17T09:54:47.157Z,69.10
2023-07-17T09:57:38.049Z,69.70
2023-07-17T10:00:14.565Z,69.20
2023-07-17T10:03:05.426Z,69.70
2023-07-17T10:05:40.635Z,70.80
2023-07-17T10:08:16.754Z,71.50
2023-07-17T10:10:49.564Z,73.20
2023-07-17T10:13:22.215Z,71.50
2023-07-17T10:15:54.672Z,73.70
2023-07-17T10:18:26.913Z,72.90
2023-07-17T10:21:05.365Z,72.00
2023-07-17T10:23:37.504Z,72.80
2023-07-17T10:26:18.051Z,74.30
2023-07-17T10:28:54.979Z,73.50
2023-07-17T10:31:27.577Z,71.80
2023-07-17T10:34:05.422Z,74.60
2023-07-17T10:36:43.256Z,73.00
2023-07-17T10:39:20.533Z,70.00
2023-07-17T10:41:55.550Z,73.40
2023-07-17T10:44:36.421Z,72.70
2023-07-17T10:47:08.836Z,76.00
2023-07-17T10:49:43.844Z,72.80
2023-07-17T10:52:18.192Z,75.20
2023-07-17T10:54:50.306Z,72.70
2023-07-17T10:57:22.641Z,72.30
2023-07-17T10:59:56.725Z,72.90
2023-07-17T11:02:29.712Z,80.00
2023-07-17T11:05:04.796Z,72.60
2023-07-17T11:07:37.226Z,73.60
2023-07-17T11:10:13.343Z,72.70
2023-07-17T11:12:46.403Z,71.00
2023-07-17T11:15:19.795Z,72.50
2023-07-17T11:17:53.371Z,71.90
2023-07-17T11:20:25.767Z,73.70
2023-07-17T11:22:59.584Z,69.40
2023-07-17T11:25:35.274Z,69.70
2023-07-17T11:28:07.581Z,74.60
2023-07-17T11:30:40.057Z,70.20
2023-07-17T11:33:12.521Z,70.30
2023-07-17T11:35:53.871Z,74.80
2023-07-17T11:38:26.122Z,69.70
2023-07-17T11:41:03.187Z,72.10
2023-07-17T11:43:39.015Z,70.60
2023-07-17T11:46:12.482Z,71.60
2023-07-17T11:48:45.023Z,70.60
2023-07-17T11:51:18.392Z,70.20
2023-07-17T11:53:56.555Z,69.50
2023-07-17T11:56:42.280Z,66.90
2023-07-17T11:59:19.611Z,72.00
2023-07-17T12:01:53.682Z,70.40
2023-07-17T12:04:30.108Z,68.30
2023-07-17T12:07:06.637Z,72.80
2023-07-17T12:09:50.990Z,70.20
2023-07-17T12:12:23.185Z,69.10
2023-07-17T12:14:55.254Z,66.90
2023-07-17T12:17:27.494Z,66.10
2023-07-17T12:19:59.745Z,66.00
2023-07-17T12:22:32.140Z,69.00
2023-07-17T12:25:04.631Z,68.10
2023-07-17T12:27:38.024Z,67.70
2023-07-17T12:30:11.268Z,68.40
2023-07-17T12:32:45.523Z,68.20
2023-07-17T12:35:18.120Z,65.80
2023-07-17T12:37:50.313Z,66.40
2023-07-17T12:40:22.432Z,66.40
2023-07-17T12:42:54.631Z,68.00
2023-07-17T12:45:26.832Z,65.00
2023-07-17T12:47:59.540Z,66.80
2023-07-17T12:50:31.789Z,67.00
2023-07-17T12:53:05.061Z,67.70
2023-07-17T12:55:39.528Z,68.10
2023-07-17T12:58:11.764Z,66.40
2023-07-17T13:00:44.574Z,67.80
2023-07-17T13:03:16.976Z,65.70
2023-07-17T13:05:50.328Z,67.50
2023-07-17T13:08:23.094Z,67.50
2023-07-17T13:10:55.179Z,68.30
2023-07-17T13:13:27.437Z,67.50
2023-07-17T13:15:59.651Z,69.70
2023-07-17T13:18:31.917Z,68.20
2023-07-17T13:21:05.693Z,66.60
2023-07-17T13:23:38.045Z,68.30
2023-07-17T13:26:10.478Z,67.70
2023-07-17T13:28:42.849Z,67.90
2023-07-17T13:31:15.065Z,69.00
2023-07-17T13:33:47.315Z,69.00
2023-07-17T13:36:19.460Z,69.70
2023-07-17T13:38:51.698Z,68.20
2023-07-17T13:41:45.567Z,68.20
2023-07-17T13:44:22.421Z,69.20
2023-07-17T13:46:54.670Z,68.20
2023-07-17T13:49:27.969Z,70.30
2023-07-17T13:52:00.133Z,67.80
2023-07-17T13:54:32.286Z,67.50
2023-07-17T13:57:04.898Z,68.80
2023-07-17T13:59:37.314Z,69.20
2023-07-17T14:02:09.403Z,69.30
2023-07-17T14:04:41.612Z,69.60
2023-07-17T14:07:13.666Z,70.30
2023-07-17T14:09:45.735Z,71.10
2023-07-17T14:12:17.880Z,71.70
2023-07-17T14:14:50.026Z,71.30
2023-07-17T14:17:23.054Z,71.50
2023-07-17T14:19:55.180Z,71.60
2023-07-17T14:22:27.663Z,71.30
2023-07-17T14:25:00.236Z,72.20
2023-07-17T14:27:32.557Z,73.70
2023-07-17T14:30:05.135Z,73.00
2023-07-17T14:32:37.789Z,73.20
2023-07-17T14:35:09.973Z,71.60
2023-07-17T14:37:42.261Z,72.30
2023-07-17T14:40:14.304Z,73.50
2023-07-17T14:42:47.068Z,72.10
2023-07-17T14:45:19.337Z,70.00
2023-07-17T14:47:51.571Z,69.70
2023-07-17T14:50:24.771Z,72.10
2023-07-17T14:52:57.953Z,71.80
2023-07-17T14:55:30.258Z,70.00
2023-07-17T14:58:02.388Z,70.60
2023-07-17T15:00:34.638Z,70.30
2023-07-17T15:03:06.889Z,70.40
2023-07-17T15:05:39.020Z,70.10
2023-07-17T15:08:11.105Z,70.70
2023-07-17T15:10:43.218Z,67.70
2023-07-17T15:13:15.658Z,68.20
2023-07-17T15:15:47.917Z,72.00
2023-07-17T15:18:20.012Z,67.50
2023-07-17T15:20:52.372Z,68.70
2023-07-17T15:23:24.924Z,69.10
2023-07-17T15:25:57.071Z,70.40
2023-07-17T15:28:29.226Z,69.40
2023-07-17T15:31:01.491Z,69.40
2023-07-17T15:33:34.857Z,70.00
2023-07-17T15:36:07.511Z,70.30
2023-07-17T15:38:39.743Z,69.30
2023-07-17T15:41:14.309Z,73.20
2023-07-17T15:43:47.306Z,69.10
2023-07-17T15:46:20.525Z,69.70
2023-07-17T15:48:53.287Z,69.60
2023-07-17T15:51:25.537Z,69.70
2023-07-17T15:53:57.761Z,68.00
2023-07-17T15:56:29.937Z,69.40
2023-07-17T15:59:02.427Z,69.90
2023-07-17T16:01:35.668Z,69.80
2023-07-17T16:04:07.908Z,70.10
2023-07-17T16:06:40.048Z,69.30
2023-07-17T16:09:12.735Z,71.30
2023-07-17T16:11:46.728Z,70.70
2023-07-17T16:14:19.242Z,71.60
2023-07-17T16:16:51.746Z,71.60
2023-07-17T16:19:24.287Z,72.10
2023-07-17T16:21:56.429Z,73.60
2023-07-17T16:24:28.591Z,73.80
2023-07-17T16:27:01.237Z,72.40
2023-07-17T16:29:33.948Z,72.20
2023-07-17T16:32:07.166Z,72.10
2023-07-17T16:34:39.466Z,71.00
2023-07-17T16:37:12.005Z,70.90
2023-07-17T16:39:44.149Z,72.40
2023-07-17T16:42:16.529Z,72.20
2023-07-17T16:44:49.256Z,70.80
2023-07-17T16:47:21.569Z,71.00
2023-07-17T16:49:53.605Z,71.20
2023-07-17T16:52:25.693Z,71.00
2023-07-17T16:54:58.072Z,72.40
2023-07-17T16:57:32.705Z,71.30
2023-07-17T17:00:07.145Z,69.70
2023-07-17T17:02:40.013Z,69.60
2023-07-17T17:05:13.511Z,71.10
2023-07-17T17:07:46.158Z,71.90
2023-07-17T17:10:18.355Z,69.90
2023-07-17T17:12:50.563Z,70.90
2023-07-17T17:15:23.154Z,70.80
2023-07-17T17:17:56.138Z,71.00
2023-07-17T17:20:28.535Z,71.50
2023-07-17T17:23:02.304Z,70.20
2023-07-17T17:25:35.065Z,71.10
2023-07-17T17:28:11.682Z,71.00
2023-07-17T17:30:45.320Z,70.90
2023-07-17T17:33:19.447Z,71.40
2023-07-17T17:35:54.778Z,70.70
2023-07-17T17:38:27.150Z,69.60
2023-07-17T17:41:00.250Z,70.80
2023-07-17T17:43:34.237Z,70.20
2023-07-17T17:46:07.065Z,69.70
2023-07-17T17:48:39.615Z,69.90
2023-07-17T17:51:12.077Z,70.70
2023-07-17T17:53:44.341Z,70.50
2023-07-17T17:56:17.359Z,70.20
2023-07-17T17:58:49.685Z,70.50
2023-07-17T18:01:22.036Z,70.40
2023-07-17T18:03:57.113Z,70.30
2023-07-17T18:06:31.311Z,70.40
2023-07-17T18:09:04.490Z,70.60
2023-07-17T18:11:40.041Z,69.90
2023-07-17T18:14:14.057Z,70.20
2023-07-17T18:16:47.285Z,71.00
2023-07-17T18:19:19.740Z,70.20
2023-07-17T18:21:57.546Z,70.00
2023-07-17T18:24:29.841Z,70.70
2023-07-17T18:27:05.341Z,70.60
2023-07-17T18:29:37.679Z,69.80
2023-07-17T18:32:10.138Z,70.10
2023-07-17T18:34:42.679Z,70.30
2023-07-17T18:37:15.390Z,71.20
2023-07-17T18:39:47.950Z,71.00
2023-07-17T18:42:21.049Z,71.20
2023-07-17T18:44:53.399Z,71.30
2023-07-17T18:47:25.879Z,71.00
2023-07-17T18:49:58.419Z,71.00
2023-07-17T18:52:30.791Z,71.60
2023-07-17T18:55:05.541Z,72.80
2023-07-17T18:57:39.747Z,72.80
2023-07-17T19:00:13.348Z,72.10
2023-07-17T19:02:47.108Z,72.80
2023-07-17T19:05:22.025Z,72.50
2023-07-17T19:07:54.616Z,73.20
2023-07-17T19:10:26.735Z,72.70
2023-07-17T19:12:58.825Z,72.90
2023-07-17T19:15:31.069Z,74.00
2023-07-17T19:18:03.390Z,74.60
2023-07-17T19:20:40.822Z,74.30
2023-07-17T19:23:13.207Z,74.00
2023-07-17T19:25:45.605Z,73.80
2023-07-17T19:28:18.003Z,74.10
2023-07-17T19:30:51.088Z,74.60
2023-07-17T19:33:23.826Z,74.40
2023-07-17T19:35:56.289Z,74.40
2023-07-17T19:38:28.434Z,75.10
2023-07-17T19:41:02.915Z,74.80
2023-07-17T19:43:36.060Z,74.80
2023-07-17T19:46:08.595Z,75.10
2023-07-17T19:48:41.553Z,74.90
2023-07-17T19:51:13.825Z,75.00
2023-07-17T19:53:46.950Z,75.60
2023-07-17T19:56:19.187Z,75.40
2023-07-17T19:58:51.332Z,75.50
2023-07-17T20:01:24.091Z,75.60
2023-07-17T20:03:57.867Z,75.80
2023-07-17T20:06:30.115Z,75.90
2023-07-17T20:09:04.097Z,76.10
2023-07-17T20:11:36.433Z,76.30
2023-07-17T20:14:10.646Z,77.00
2023-07-17T20:16:43.436Z,77.20
2023-07-17T20:19:16.894Z,77.20
2023-07-17T20:21:49.586Z,78.60
2023-07-17T20:24:21.712Z,79.20
2023-07-17T20:26:54.648Z,79.20
2023-07-17T20:29:27.835Z,80.00
2023-07-17T20:31:59.990Z,80.30
2023-07-17T20:34:32.673Z,80.30
2023-07-17T20:37:05.253Z,81.00
2023-07-17T20:39:38.155Z,80.80
2023-07-17T20:42:11.729Z,80.80
2023-07-17T20:45:04.723Z,81.50
2023-07-17T20:47:37.825Z,81.50
2023-07-17T20:50:10.200Z,82.90
2023-07-17T20:52:48.617Z,83.30
2023-07-17T20:55:22.250Z,83.80
2023-07-17T20:57:54.519Z,83.40
2023-07-17T21:00:27.795Z,84.10
2023-07-17T21:03:00.573Z,83.80
2023-07-17T21:05:34.624Z,84.30
2023-07-17T21:08:10.888Z,83.90
2023-07-17T21:10:43.121Z,84.60
2023-07-17T21:13:15.700Z,85.00
2023-07-17T21:15:48.334Z,85.60
2023-07-17T21:18:22.436Z,85.70
2023-07-17T21:20:55.278Z,85.20
2023-07-17T21:23:27.742Z,85.40
2023-07-17T21:26:00.064Z,85.80
2023-07-17T21:28:33.120Z,85.60
2023-07-17T21:31:05.343Z,86.60
2023-07-17T21:33:37.490Z,87.20
2023-07-17T21:36:09.504Z,87.50
2023-07-17T21:38:41.816Z,87.10
2023-07-17T21:41:13.896Z,86.70
2023-07-17T21:43:46.102Z,88.00
2023-07-17T21:46:18.777Z,86.90
2023-07-17T21:48:51.199Z,86.90
2023-07-17T21:51:23.738Z,87.00
2023-07-17T21:53:55.885Z,87.90
2023-07-17T21:56:28.418Z,88.00
2023-07-17T21:59:00.469Z,88.90
2023-07-17T22:01:32.854Z,88.40
2023-07-17T22:04:05.889Z,88.80
2023-07-17T22:06:38.124Z,89.10
2023-07-17T22:09:10.691Z,89.50
2023-07-17T22:11:43.563Z,89.70
2023-07-17T22:14:15.624Z,89.70
2023-07-17T22:16:47.945Z,90.00
2023-07-17T22:19:20.219Z,90.00
2023-07-17T22:21:52.353Z,90.00
2023-07-17T22:24:24.492Z,90.10
2023-07-17T22:26:56.588Z,90.40
2023-07-17T22:29:29.475Z,90.50
2023-07-17T22:32:02.290Z,90.70
2023-07-17T22:34:35.236Z,90.70
2023-07-17T22:37:07.579Z,90.70
2023-07-17T22:39:39.857Z,90.70
2023-07-17T22:42:11.926Z,90.70
2023-07-17T22:44:45.350Z,91.30
2023-07-17T22:47:24.217Z,91.30
2023-07-17T22:49:58.184Z,91.20
2023-07-17T22:52:31.625Z,91.10
2023-07-17T22:55:04.028Z,90.90
2023-07-17T22:57:39.587Z,91.40
2023-07-17T23:00:12.579Z,91.80
2023-07-17T23:02:45.524Z,91.70
2023-07-17T23:05:17.725Z,91.40
2023-07-17T23:07:51.257Z,91.20
2023-07-17T23:10:26.657Z,91.10
2023-07-17T23:12:58.855Z,91.10
2023-07-17T23:15:31.441Z,91.20
2023-07-17T23:18:04.208Z,91.50
2023-07-17T23:20:36.522Z,91.80
2023-07-17T23:23:09.494Z,92.10
2023-07-17T23:25:45.648Z,91.90
2023-07-17T23:28:17.733Z,91.80
2023-07-17T23:30:49.978Z,92.00
2023-07-17T23:33:22.396Z,92.20
2023-07-17T23:35:54.942Z,92.20
2023-07-17T23:38:28.295Z,92.30
2023-07-17T23:41:01.335Z,92.50
2023-07-17T23:43:34.901Z,92.70
2023-07-17T23:46:07.113Z,93.20
2023-07-17T23:48:39.890Z,92.90
2023-07-17T23:51:11.995Z,93.10
2023-07-17T23:53:44.005Z,93.20
2023-07-17T23:56:16.172Z,93.30
2023-07-17T23:58:49.063Z,93.10
